Time;durP1;ratioP1;P1;durP2;ratioP2;P2;SDS_P1;SDS_P2;PMS_P1;PMS_P2;Temp;Humidity;BMP_temperature;BMP_pressure;BME280_temperature;BME280_humidity;BME280_pressure;Samples;Min_cycle;Max_cycle;Signal;HPM_P1;HPM_P2
2021/04/21 00:03:52;;;;;;;10.10;9.13;;;;;;;;;;9999081;29;20087;-61
2021/04/21 00:08:50;;;;;;;9.00;8.10;;;;;;;;;;9997890;29;20048;-60
2021/04/21 00:13:48;;;;;;;10.00;8.90;;;;;;;;;;9999270;29;20086;-60
2021/04/21 00:18:45;;;;;;;10.63;9.52;;;;;;;;;;9998351;29;20470;-60
2021/04/21 00:23:44;;;;;;;11.02;9.93;;;;;;;;;;9998414;29;20091;-61
2021/04/21 00:28:43;;;;;;;11.48;10.25;;;;;;;;;;9998013;29;20057;-61
2021/04/21 00:33:42;;;;;;;11.18;9.80;;;;;;;;;;9998990;29;20086;-61
2021/04/21 00:38:40;;;;;;;11.65;10.45;;;;;;;;;;9999053;29;20089;-61
2021/04/21 00:43:42;;;;;;;10.93;9.82;;;;;;;;;;9998721;29;20730;-60
2021/04/21 00:48:46;;;;;;;13.20;9.95;;;;;;;;;;9999026;29;20048;-61
2021/04/21 00:53:48;;;;;;;12.20;10.77;;;;;;;;;;9997758;29;20067;-60
2021/04/21 00:58:54;;;;;;;11.25;10.15;;;;;;;;;;9996948;29;20067;-60
2021/04/21 01:03:53;;;;;;;12.40;10.50;;;;;;;;;;9998433;29;20091;-60
2021/04/21 01:08:51;;;;;;;12.70;9.77;;;;;;;;;;9997096;29;20055;-60
2021/04/21 01:13:51;;;;;;;12.20;10.60;;;;;;;;;;9997536;29;20056;-61
2021/04/21 01:18:52;;;;;;;12.57;10.70;;;;;;;;;;9998634;29;20048;-62
2021/04/21 01:23:58;;;;;;;11.95;10.63;;;;;;;;;;9996806;29;20084;-60
2021/04/21 01:28:56;;;;;;;12.00;10.73;;;;;;;;;;10001810;29;20056;-60
2021/04/21 01:33:54;;;;;;;19.85;14.45;;;;;;;;;;10004873;29;20084;-61
2021/04/21 01:38:53;;;;;;;12.73;11.32;;;;;;;;;;10004668;29;20078;-60
2021/04/21 01:43:53;;;;;;;14.32;10.98;;;;;;;;;;10003302;29;20782;-61
2021/04/21 01:48:51;;;;;;;12.65;11.35;;;;;;;;;;10002884;29;20096;-60
2021/04/21 01:53:52;;;;;;;13.63;12.23;;;;;;;;;;10003923;29;20052;-61
2021/04/21 01:58:57;;;;;;;12.70;10.77;;;;;;;;;;10004173;29;20067;-61
2021/04/21 02:04:03;;;;;;;13.60;12.20;;;;;;;;;;10003742;29;20091;-61
2021/04/21 02:09:09;;;;;;;11.90;10.65;;;;;;;;;;10003463;29;20051;-60
2021/04/21 02:14:15;;;;;;;14.30;11.20;;;;;;;;;;10002815;29;20084;-61
2021/04/21 02:19:29;;;;;;;13.45;11.57;;;;;;;;;;10003652;29;20076;-60
2021/04/21 02:24:30;;;;;;;13.35;11.85;;;;;;;;;;10001664;29;20095;-61
2021/04/21 02:29:33;;;;;;;12.93;11.45;;;;;;;;;;10002607;29;20544;-60
2021/04/21 02:34:33;;;;;;;15.52;13.27;;;;;;;;;;10002600;29;20079;-60
2021/04/21 02:39:35;;;;;;;12.73;11.40;;;;;;;;;;10002091;29;20048;-60
2021/04/21 02:44:39;;;;;;;13.80;12.35;;;;;;;;;;10002649;29;20090;-59
2021/04/21 02:49:44;;;;;;;12.68;11.27;;;;;;;;;;10002567;29;20074;-61
2021/04/21 02:54:48;;;;;;;15.88;12.98;;;;;;;;;;10001705;29;20052;-61
2021/04/21 02:59:50;;;;;;;15.15;12.55;;;;;;;;;;10002085;29;20506;-60
2021/04/21 03:04:51;;;;;;;14.23;12.45;;;;;;;;;;10001394;29;20084;-61
2021/04/21 03:09:51;;;;;;;15.13;13.52;;;;;;;;;;10002074;29;20076;-60
2021/04/21 03:14:52;;;;;;;14.65;12.88;;;;;;;;;;10002034;29;20087;-61
2021/04/21 03:19:53;;;;;;;14.82;13.25;;;;;;;;;;10001472;29;20079;-61
2021/04/21 03:24:56;;;;;;;15.63;13.98;;;;;;;;;;10000169;29;20467;-60
2021/04/21 03:29:55;;;;;;;16.90;13.65;;;;;;;;;;10000246;29;20098;-62
2021/04/21 03:34:54;;;;;;;20.73;14.68;;;;;;;;;;10000892;29;20413;-61
2021/04/21 03:39:52;;;;;;;16.95;13.85;;;;;;;;;;9997865;29;20079;-61
2021/04/21 03:44:49;;;;;;;18.27;13.82;;;;;;;;;;9993465;29;20084;-61
2021/04/21 03:49:47;;;;;;;15.32;13.15;;;;;;;;;;9994486;29;20075;-61
2021/04/21 03:54:45;;;;;;;15.82;13.63;;;;;;;;;;9996158;29;20079;-61
2021/04/21 03:59:43;;;;;;;15.02;12.80;;;;;;;;;;9998304;29;20083;-61
2021/04/21 04:04:44;;;;;;;16.42;14.23;;;;;;;;;;9998398;29;20514;-61
2021/04/21 04:09:44;;;;;;;16.13;13.27;;;;;;;;;;9998372;29;20083;-61
2021/04/21 04:14:44;;;;;;;15.40;13.77;;;;;;;;;;9996725;29;20083;-61
2021/04/21 04:19:42;;;;;;;18.75;15.68;;;;;;;;;;9997743;29;20052;-62
2021/04/21 04:24:42;;;;;;;17.65;15.50;;;;;;;;;;9997037;29;20482;-61
2021/04/21 04:29:41;;;;;;;18.73;15.60;;;;;;;;;;9995211;29;20059;-61
2021/04/21 04:34:39;;;;;;;21.75;15.75;;;;;;;;;;9995759;29;20075;-61
2021/04/21 04:39:37;;;;;;;28.50;21.35;;;;;;;;;;9997519;29;20510;-61
2021/04/21 04:44:35;;;;;;;20.10;17.30;;;;;;;;;;9997280;29;20075;-61
2021/04/21 04:49:35;;;;;;;34.60;28.58;;;;;;;;;;9995500;29;20064;-62
2021/04/21 04:54:33;;;;;;;21.05;17.80;;;;;;;;;;9994220;29;20079;-62
2021/04/21 04:59:33;;;;;;;23.52;18.40;;;;;;;;;;9993893;29;20083;-60
2021/04/21 05:04:33;;;;;;;20.70;17.25;;;;;;;;;;10000265;29;20494;-61
2021/04/21 05:09:32;;;;;;;19.45;17.05;;;;;;;;;;10004149;29;20048;-61
2021/04/21 05:14:32;;;;;;;20.23;16.95;;;;;;;;;;10004403;29;20463;-61
2021/04/21 05:19:52;;;;;;;20.48;17.05;;;;;;;;;;10003998;29;20079;-59
2021/04/21 05:25:13;;;;;;;23.30;19.38;;;;;;;;;;10004190;29;20091;-62
2021/04/21 05:30:44;;;;;;;23.15;17.73;;;;;;;;;;10003564;29;20088;-62
2021/04/21 05:36:01;;;;;;;21.42;17.40;;;;;;;;;;9884065;29;20087;-61
2021/04/21 05:41:06;;;;;;;20.17;16.50;;;;;;;;;;9979481;29;20388;-61
2021/04/21 05:46:24;;;;;;;22.45;18.08;;;;;;;;;;10002703;29;20091;-60
2021/04/21 05:51:39;;;;;;;27.52;17.60;;;;;;;;;;10003253;29;20083;-61
2021/04/21 05:56:56;;;;;;;26.60;21.77;;;;;;;;;;10003584;29;20584;-60
2021/04/21 06:01:55;;;;;;;23.77;18.90;;;;;;;;;;10002417;29;20076;-61
2021/04/21 06:07:04;;;;;;;70.30;25.27;;;;;;;;;;10001889;29;20107;-60
2021/04/21 06:12:09;;;;;;;27.75;20.73;;;;;;;;;;10001781;29;20075;-62
2021/04/21 06:17:06;;;;;;;22.45;19.23;;;;;;;;;;10000269;29;20076;-60
2021/04/21 06:22:04;;;;;;;25.77;20.67;;;;;;;;;;10000679;29;20114;-61
2021/04/21 06:27:08;;;;;;;22.90;19.73;;;;;;;;;;10001391;29;20079;-60
2021/04/21 06:32:06;;;;;;;23.70;20.73;;;;;;;;;;10000674;29;20064;-60
2021/04/21 06:37:03;;;;;;;25.70;21.80;;;;;;;;;;10000997;29;20095;-61
2021/04/21 06:42:02;;;;;;;25.45;21.45;;;;;;;;;;10000637;29;20450;-60
2021/04/21 06:47:00;;;;;;;24.42;19.92;;;;;;;;;;9999470;29;20091;-62
2021/04/21 06:52:11;;;;;;;25.77;19.80;;;;;;;;;;10000436;29;20083;-61
2021/04/21 06:57:08;;;;;;;27.98;20.05;;;;;;;;;;10000253;29;20048;-61
2021/04/21 07:02:08;;;;;;;21.85;19.50;;;;;;;;;;9999932;29;20521;-62
2021/04/21 07:07:06;;;;;;;27.20;19.63;;;;;;;;;;9999692;29;20075;-62
2021/04/21 07:12:04;;;;;;;24.48;20.00;;;;;;;;;;10000356;29;20496;-61
2021/04/21 07:17:01;;;;;;;23.42;19.48;;;;;;;;;;9999793;29;20059;-61
2021/04/21 07:22:00;;;;;;;23.20;20.10;;;;;;;;;;9999574;29;20040;-61
2021/04/21 07:26:58;;;;;;;25.35;21.42;;;;;;;;;;9998380;29;20090;-61
2021/04/21 07:31:56;;;;;;;27.05;19.38;;;;;;;;;;9999108;29;20063;-61
2021/04/21 07:36:53;;;;;;;27.63;23.80;;;;;;;;;;9998078;29;20098;-61
2021/04/21 07:41:52;;;;;;;25.85;21.88;;;;;;;;;;9998596;29;20072;-62
2021/04/21 07:46:51;;;;;;;27.42;21.27;;;;;;;;;;9997684;29;20090;-61
2021/04/21 07:51:49;;;;;;;24.10;18.95;;;;;;;;;;9998760;29;20044;-61
2021/04/21 07:56:54;;;;;;;23.50;21.00;;;;;;;;;;9997252;29;20552;-61
2021/04/21 08:01:52;;;;;;;27.98;22.70;;;;;;;;;;9997563;29;20084;-61
2021/04/21 08:06:51;;;;;;;21.02;18.60;;;;;;;;;;9997501;29;20075;-55
2021/04/21 08:12:13;;;;;;;23.50;20.27;;;;;;;;;;9997797;29;20475;-57
2021/04/21 08:17:11;;;;;;;21.40;19.10;;;;;;;;;;9997849;29;20475;-57
2021/04/21 08:22:09;;;;;;;20.90;18.67;;;;;;;;;;9997330;29;20068;-55
2021/04/21 08:27:07;;;;;;;23.27;20.45;;;;;;;;;;9997092;29;20083;-56
2021/04/21 08:32:07;;;;;;;23.10;20.45;;;;;;;;;;9996680;29;20106;-55
2021/04/21 08:37:05;;;;;;;28.08;24.45;;;;;;;;;;9995336;29;20545;-56
2021/04/21 08:42:07;;;;;;;24.92;20.08;;;;;;;;;;9996810;29;20469;-56
2021/04/21 08:47:04;;;;;;;20.45;18.17;;;;;;;;;;9996303;29;20096;-55
2021/04/21 08:52:02;;;;;;;22.48;18.77;;;;;;;;;;9996645;29;20542;-56
2021/04/21 08:57:00;;;;;;;21.95;18.13;;;;;;;;;;9996718;29;20071;-55
2021/04/21 09:01:57;;;;;;;19.98;17.70;;;;;;;;;;9996676;29;20540;-57
2021/04/21 09:06:55;;;;;;;21.63;19.42;;;;;;;;;;9996738;29;20110;-57
2021/04/21 09:11:53;;;;;;;20.88;18.25;;;;;;;;;;9996258;29;20118;-57
2021/04/21 09:16:50;;;;;;;22.10;18.67;;;;;;;;;;9995787;29;20079;-56
2021/04/21 09:22:02;;;;;;;24.63;20.80;;;;;;;;;;9995362;29;20084;-56
2021/04/21 09:27:19;;;;;;;23.08;20.15;;;;;;;;;;9996125;29;20079;-56
2021/04/21 09:32:16;;;;;;;26.38;17.70;;;;;;;;;;9995817;29;20083;-56
2021/04/21 09:37:32;;;;;;;22.55;17.52;;;;;;;;;;9995914;29;20048;-56
2021/04/21 09:42:30;;;;;;;20.73;17.25;;;;;;;;;;9995632;29;20075;-57
2021/04/21 09:47:27;;;;;;;18.50;16.60;;;;;;;;;;9996688;29;20083;-57
2021/04/21 09:52:28;;;;;;;17.35;15.55;;;;;;;;;;10002567;29;20072;-58
2021/04/21 09:57:27;;;;;;;26.75;18.65;;;;;;;;;;10002170;29;20047;-57
2021/04/21 10:02:33;;;;;;;21.63;17.60;;;;;;;;;;10002236;29;20087;-57
2021/04/21 10:07:30;;;;;;;20.40;16.80;;;;;;;;;;10002171;29;20093;-56
2021/04/21 10:12:32;;;;;;;19.88;16.35;;;;;;;;;;10001921;29;20517;-57
2021/04/21 10:17:30;;;;;;;16.77;14.30;;;;;;;;;;10001894;29;20051;-57
2021/04/21 10:22:28;;;;;;;17.60;14.18;;;;;;;;;;10000742;29;20091;-57
2021/04/21 10:27:26;;;;;;;18.00;14.95;;;;;;;;;;10000343;29;20091;-54
2021/04/21 10:32:23;;;;;;;16.85;14.70;;;;;;;;;;10001100;29;20110;-57
2021/04/21 10:37:21;;;;;;;15.32;13.27;;;;;;;;;;10000914;29;20082;-57
2021/04/21 10:42:20;;;;;;;13.20;11.90;;;;;;;;;;10000236;29;20083;-57
2021/04/21 10:47:18;;;;;;;15.68;13.80;;;;;;;;;;10000725;29;20103;-55
2021/04/21 10:52:17;;;;;;;16.42;14.25;;;;;;;;;;10000707;29;20079;-58
2021/04/21 10:57:31;;;;;;;12.45;10.95;;;;;;;;;;10000595;29;20078;-55
2021/04/21 11:02:48;;;;;;;13.73;10.88;;;;;;;;;;9999703;29;20165;-58
2021/04/21 11:07:46;;;;;;;15.05;12.40;;;;;;;;;;9999265;29;20086;-57
2021/04/21 11:12:51;;;;;;;15.20;10.82;;;;;;;;;;9999998;29;20180;-55
2021/04/21 11:18:03;;;;;;;11.88;9.70;;;;;;;;;;9999625;29;20052;-56
2021/04/21 11:23:00;;;;;;;15.45;12.27;;;;;;;;;;9991055;29;20075;-57
2021/04/21 11:27:59;;;;;;;16.50;10.30;;;;;;;;;;9999776;29;20098;-56
2021/04/21 11:32:56;;;;;;;10.90;9.65;;;;;;;;;;9999116;29;20044;-55
2021/04/21 11:37:54;;;;;;;11.85;9.02;;;;;;;;;;9998745;29;20090;-54
2021/04/21 11:42:52;;;;;;;9.98;7.78;;;;;;;;;;9999079;29;20342;-54
2021/04/21 11:47:50;;;;;;;9.45;8.48;;;;;;;;;;9998912;29;20079;-57
2021/04/21 11:52:51;;;;;;;9.68;8.00;;;;;;;;;;9998455;29;20552;-56
2021/04/21 11:57:56;;;;;;;10.85;9.52;;;;;;;;;;9997971;29;20083;-56
2021/04/21 12:02:55;;;;;;;9.77;8.00;;;;;;;;;;9998184;29;20506;-55
2021/04/21 12:07:52;;;;;;;7.05;6.30;;;;;;;;;;9997892;29;20087;-56
2021/04/21 12:12:50;;;;;;;7.95;6.68;;;;;;;;;;9997584;29;20083;-57
2021/04/21 12:17:52;;;;;;;7.38;6.05;;;;;;;;;;9997543;29;20067;-58
2021/04/21 12:22:52;;;;;;;;;;;;;;;;;;9997961;29;20091;-56
2021/04/21 12:27:51;;;;;;;8.93;6.07;;;;;;;;;;9997227;29;19966;-56
2021/04/21 12:32:48;;;;;;;6.78;5.38;;;;;;;;;;9997081;29;20498;-55
2021/04/21 12:37:54;;;;;;;7.97;5.90;;;;;;;;;;9996421;29;20076;-55
2021/04/21 12:42:52;;;;;;;8.60;5.70;;;;;;;;;;9996714;29;20048;-56
2021/04/21 12:47:49;;;;;;;7.18;5.50;;;;;;;;;;9996934;29;20517;-56
2021/04/21 12:52:46;;;;;;;9.10;6.38;;;;;;;;;;9996963;29;20087;-56
2021/04/21 12:57:49;;;;;;;9.55;6.43;;;;;;;;;;9997183;29;20040;-55
2021/04/21 13:02:49;;;;;;;6.65;5.97;;;;;;;;;;9997056;29;20071;-57
2021/04/21 13:07:47;;;;;;;9.88;8.23;;;;;;;;;;9996570;29;20071;-56
2021/04/21 13:12:44;;;;;;;8.55;6.70;;;;;;;;;;9996211;29;20088;-57
2021/04/21 13:17:49;;;;;;;6.47;5.88;;;;;;;;;;9996039;29;20165;-57
2021/04/21 13:22:46;;;;;;;7.97;6.70;;;;;;;;;;9997856;29;20545;-55
2021/04/21 13:27:43;;;;;;;8.35;7.13;;;;;;;;;;10002992;29;20083;-56
2021/04/21 13:32:43;;;;;;;14.60;10.15;;;;;;;;;;10002983;29;20048;-57
2021/04/21 13:37:41;;;;;;;8.02;7.22;;;;;;;;;;10003202;29;20095;-59
2021/04/21 13:42:39;;;;;;;8.27;7.47;;;;;;;;;;10003063;29;20088;-57
2021/04/21 13:47:37;;;;;;;8.90;7.20;;;;;;;;;;10002338;29;20088;-56
2021/04/21 13:52:35;;;;;;;11.15;8.73;;;;;;;;;;10002764;29;20072;-57
2021/04/21 13:57:33;;;;;;;11.23;8.40;;;;;;;;;;10002309;29;20080;-52
2021/04/21 14:02:30;;;;;;;7.72;6.95;;;;;;;;;;10001221;29;20460;-57
2021/04/21 14:07:28;;;;;;;9.48;7.25;;;;;;;;;;10001886;29;20076;-58
2021/04/21 14:12:25;;;;;;;11.43;7.75;;;;;;;;;;10001638;29;20102;-54
2021/04/21 14:17:23;;;;;;;9.13;6.60;;;;;;;;;;10001396;29;20611;-53
2021/04/21 14:22:21;;;;;;;9.10;7.90;;;;;;;;;;10001777;29;20091;-54
2021/04/21 14:27:18;;;;;;;8.90;8.02;;;;;;;;;;10001001;29;20080;-55
2021/04/21 14:32:15;;;;;;;10.55;7.97;;;;;;;;;;10011877;29;20510;-50
2021/04/21 14:37:14;;;;;;;10.73;8.63;;;;;;;;;;10008282;29;20127;-57
2021/04/21 14:42:11;;;;;;;10.82;8.30;;;;;;;;;;10012581;29;20489;-52
2021/04/21 14:47:08;;;;;;;10.60;9.40;;;;;;;;;;10020339;29;20079;-55
2021/04/21 14:52:06;;;;;;;16.20;14.55;;;;;;;;;;10012808;29;20078;-56
2021/04/21 14:57:05;;;;;;;27.73;24.85;;;;;;;;;;10031180;29;20095;-55
2021/04/21 15:02:03;;;;;;;16.02;14.43;;;;;;;;;;10038553;29;21157;-53
2021/04/21 15:07:01;;;;;;;12.60;11.40;;;;;;;;;;10025115;29;20526;-56
2021/04/21 15:11:58;;;;;;;10.43;9.40;;;;;;;;;;10019586;29;20074;-53
2021/04/21 15:16:56;;;;;;;9.55;7.60;;;;;;;;;;10030989;29;20182;-57
2021/04/21 15:21:54;;;;;;;13.40;10.32;;;;;;;;;;10021397;29;20075;-54
2021/04/21 15:26:51;;;;;;;19.30;15.18;;;;;;;;;;10000818;29;20087;-54
2021/04/21 15:31:57;;;;;;;7.70;7.00;;;;;;;;;;10010029;29;20079;-53
2021/04/21 15:36:56;;;;;;;24.00;18.52;;;;;;;;;;10015735;29;20537;-56
2021/04/21 15:41:53;;;;;;;14.52;11.45;;;;;;;;;;10032678;29;20525;-56
2021/04/21 15:46:50;;;;;;;10.65;9.55;;;;;;;;;;10038329;29;20090;-56
2021/04/21 15:51:54;;;;;;;18.27;14.57;;;;;;;;;;10038150;29;20114;-54
2021/04/21 15:56:53;;;;;;;21.97;15.77;;;;;;;;;;10038142;29;20495;-56
2021/04/21 16:01:53;;;;;;;36.97;27.08;;;;;;;;;;10037506;29;20047;-57
2021/04/21 16:06:50;;;;;;;16.73;12.63;;;;;;;;;;10037135;29;20083;-58
2021/04/21 16:11:48;;;;;;;40.65;29.98;;;;;;;;;;10037730;29;20087;-57
2021/04/21 16:16:46;;;;;;;22.65;18.42;;;;;;;;;;10037827;29;20090;-55
2021/04/21 16:21:45;;;;;;;52.55;41.33;;;;;;;;;;10036880;29;20083;-58
2021/04/21 16:26:47;;;;;;;47.83;41.67;;;;;;;;;;10037210;29;20079;-56
2021/04/21 16:31:46;;;;;;;45.05;31.77;;;;;;;;;;10037548;29;20094;-56
2021/04/21 16:36:43;;;;;;;34.53;23.77;;;;;;;;;;10033084;29;20486;-58
2021/04/21 16:41:41;;;;;;;51.25;32.25;;;;;;;;;;10033667;29;20075;-57
2021/04/21 16:46:38;;;;;;;51.10;33.03;;;;;;;;;;10032790;29;20094;-57
2021/04/21 16:51:42;;;;;;;55.88;34.50;;;;;;;;;;10035273;29;20095;-56
2021/04/21 16:56:40;;;;;;;55.50;35.53;;;;;;;;;;10036762;29;20091;-55
2021/04/21 17:01:38;;;;;;;74.90;45.58;;;;;;;;;;10043979;29;20052;-58
2021/04/21 17:06:37;;;;;;;30.23;20.42;;;;;;;;;;10045178;29;20536;-57
2021/04/21 17:11:35;;;;;;;27.25;19.77;;;;;;;;;;10044209;29;20506;-57
2021/04/21 17:16:33;;;;;;;50.33;32.58;;;;;;;;;;10044631;29;20510;-57
2021/04/21 17:21:31;;;;;;;42.78;29.63;;;;;;;;;;10045015;29;20047;-58
2021/04/21 17:26:30;;;;;;;49.45;34.05;;;;;;;;;;10044991;29;20501;-56
2021/04/21 17:31:28;;;;;;;34.00;26.58;;;;;;;;;;10043993;29;20060;-56
2021/04/21 17:36:26;;;;;;;33.72;24.60;;;;;;;;;;10042919;29;20119;-56
2021/04/21 17:41:23;;;;;;;19.52;17.55;;;;;;;;;;10043792;29;20086;-55
2021/04/21 17:46:21;;;;;;;18.80;15.93;;;;;;;;;;10044019;29;20083;-57
2021/04/21 17:51:21;;;;;;;18.13;15.35;;;;;;;;;;10043422;29;20107;-55
2021/04/21 17:56:19;;;;;;;20.58;18.50;;;;;;;;;;10043632;29;20082;-56
2021/04/21 18:01:17;;;;;;;21.85;17.63;;;;;;;;;;10043328;29;20516;-58
2021/04/21 18:06:15;;;;;;;22.42;18.30;;;;;;;;;;10042374;29;20052;-55
2021/04/21 18:11:13;;;;;;;31.70;28.30;;;;;;;;;;10042303;29;20047;-55
2021/04/21 18:16:10;;;;;;;17.20;15.40;;;;;;;;;;10040957;29;20051;-55
2021/04/21 18:21:07;;;;;;;95.07;75.65;;;;;;;;;;10042583;29;20079;-57
2021/04/21 18:26:05;;;;;;;129.95;80.38;;;;;;;;;;10042031;29;20090;-56
2021/04/21 18:31:03;;;;;;;79.50;54.70;;;;;;;;;;10041638;29;20055;-58
2021/04/21 18:36:02;;;;;;;31.95;27.00;;;;;;;;;;10041702;29;20114;-56
2021/04/21 18:40:59;;;;;;;21.38;17.70;;;;;;;;;;10042027;29;20048;-56
2021/04/21 18:45:56;;;;;;;15.95;11.50;;;;;;;;;;10041997;29;20045;-58
2021/04/21 18:50:55;;;;;;;21.30;17.75;;;;;;;;;;10041504;29;20087;-57
2021/04/21 18:55:54;;;;;;;20.13;12.88;;;;;;;;;;10041499;29;20047;-57
2021/04/21 19:00:52;;;;;;;13.10;10.95;;;;;;;;;;10041044;29;20079;-56
2021/04/21 19:05:49;;;;;;;10.80;9.48;;;;;;;;;;10040584;29;20043;-56
2021/04/21 19:10:48;;;;;;;9.82;8.75;;;;;;;;;;10040537;29;20071;-56
2021/04/21 19:15:45;;;;;;;11.63;9.40;;;;;;;;;;10040469;29;20051;-54
2021/04/21 19:20:43;;;;;;;9.15;7.90;;;;;;;;;;10039637;29;20086;-55
2021/04/21 19:25:41;;;;;;;10.05;7.90;;;;;;;;;;10038752;29;20056;-55
2021/04/21 19:30:39;;;;;;;11.25;10.05;;;;;;;;;;10038795;29;20091;-56
2021/04/21 19:35:37;;;;;;;11.82;10.02;;;;;;;;;;10038794;29;20051;-57
2021/04/21 19:40:34;;;;;;;12.52;8.98;;;;;;;;;;10037353;29;20446;-56
2021/04/21 19:45:32;;;;;;;8.95;8.02;;;;;;;;;;10039051;29;20052;-57
2021/04/21 19:50:30;;;;;;;11.25;8.23;;;;;;;;;;10039078;29;20078;-55
2021/04/21 19:55:27;;;;;;;8.85;7.40;;;;;;;;;;10037568;29;20062;-55
2021/04/21 20:00:24;;;;;;;8.15;6.90;;;;;;;;;;10038833;29;20084;-57
2021/04/21 20:05:22;;;;;;;8.32;7.50;;;;;;;;;;10038467;29;20051;-54
2021/04/21 20:10:24;;;;;;;9.82;7.07;;;;;;;;;;10038098;29;20098;-57
2021/04/21 20:15:22;;;;;;;11.05;8.70;;;;;;;;;;10037617;29;20047;-56
2021/04/21 20:20:20;;;;;;;10.55;7.35;;;;;;;;;;10038011;29;20055;-57
2021/04/21 20:25:17;;;;;;;10.05;9.15;;;;;;;;;;10038147;29;20056;-56
2021/04/21 20:30:17;;;;;;;11.15;8.85;;;;;;;;;;10037226;29;20083;-57
2021/04/21 20:35:15;;;;;;;11.52;7.70;;;;;;;;;;10037592;29;20087;-61
2021/04/21 20:40:12;;;;;;;8.13;7.32;;;;;;;;;;10037869;29;20079;-55
2021/04/21 20:45:10;;;;;;;12.55;11.40;;;;;;;;;;10037400;29;20079;-56
2021/04/21 20:50:09;;;;;;;9.25;8.32;;;;;;;;;;10037012;29;20481;-55
2021/04/21 20:55:07;;;;;;;12.48;11.38;;;;;;;;;;10035685;29;20505;-57
2021/04/21 21:00:05;;;;;;;13.30;11.93;;;;;;;;;;10036959;29;20394;-54
2021/04/21 21:05:03;;;;;;;17.77;16.17;;;;;;;;;;10037165;29;20414;-55
2021/04/21 21:10:03;;;;;;;11.35;10.18;;;;;;;;;;10036770;29;20521;-57
2021/04/21 21:15:00;;;;;;;16.25;14.57;;;;;;;;;;10037291;29;20505;-56
2021/04/21 21:19:58;;;;;;;14.25;9.52;;;;;;;;;;10036667;29;20074;-56
2021/04/21 21:24:55;;;;;;;11.13;10.13;;;;;;;;;;10036257;29;20091;-54
2021/04/21 21:29:54;;;;;;;9.52;8.52;;;;;;;;;;10036391;29;20552;-57
2021/04/21 21:34:51;;;;;;;9.57;8.57;;;;;;;;;;10037052;29;20117;-57
2021/04/21 21:39:49;;;;;;;9.63;8.55;;;;;;;;;;10036290;29;20048;-57
2021/04/21 21:44:46;;;;;;;8.55;7.75;;;;;;;;;;10039426;29;20090;-58
2021/04/21 21:49:44;;;;;;;7.38;6.68;;;;;;;;;;10043549;29;20465;-57
2021/04/21 21:54:41;;;;;;;7.72;6.68;;;;;;;;;;10042098;29;20075;-58
2021/04/21 21:59:39;;;;;;;7.18;6.47;;;;;;;;;;10043246;29;20075;-54
2021/04/21 22:04:36;;;;;;;8.23;7.13;;;;;;;;;;10042338;29;20122;-56
2021/04/21 22:09:36;;;;;;;7.10;6.40;;;;;;;;;;10042075;29;20082;-57
2021/04/21 22:14:35;;;;;;;6.80;6.20;;;;;;;;;;10042917;29;20058;-56
2021/04/21 22:19:33;;;;;;;7.90;6.35;;;;;;;;;;10042893;29;20075;-56
2021/04/21 22:24:30;;;;;;;8.05;7.25;;;;;;;;;;10042329;29;20093;-57
2021/04/21 22:29:29;;;;;;;7.10;6.38;;;;;;;;;;10041912;29;20090;-57
2021/04/21 22:34:26;;;;;;;7.15;6.45;;;;;;;;;;10041575;29;20079;-55
2021/04/21 22:39:25;;;;;;;7.68;6.28;;;;;;;;;;10041253;29;20458;-56
2021/04/21 22:44:23;;;;;;;7.75;6.32;;;;;;;;;;10041638;29;20094;-57
2021/04/21 22:49:21;;;;;;;6.97;6.28;;;;;;;;;;10041666;29;20102;-55
2021/04/21 22:54:18;;;;;;;6.53;5.93;;;;;;;;;;10041104;29;20040;-55
2021/04/21 22:59:15;;;;;;;7.63;6.85;;;;;;;;;;10040650;29;20051;-56
2021/04/21 23:04:13;;;;;;;7.18;6.47;;;;;;;;;;10041156;29;20052;-56
2021/04/21 23:09:11;;;;;;;6.60;6.00;;;;;;;;;;10040428;29;20079;-57
2021/04/21 23:14:08;;;;;;;6.07;5.47;;;;;;;;;;10040342;29;20510;-58
2021/04/21 23:19:06;;;;;;;6.55;5.85;;;;;;;;;;10040367;29;20075;-55
2021/04/21 23:24:03;;;;;;;6.95;6.35;;;;;;;;;;10040233;29;20058;-55
2021/04/21 23:29:02;;;;;;;6.75;5.95;;;;;;;;;;10039368;29;20553;-56
2021/04/21 23:33:59;;;;;;;6.75;6.03;;;;;;;;;;10038834;29;20076;-54
2021/04/21 23:38:56;;;;;;;6.65;6.05;;;;;;;;;;10039893;29;20078;-53
2021/04/21 23:43:54;;;;;;;6.90;5.63;;;;;;;;;;10038752;29;20086;-53
2021/04/21 23:48:52;;;;;;;7.10;6.25;;;;;;;;;;10038442;29;20083;-56
2021/04/21 23:53:49;;;;;;;6.70;6.07;;;;;;;;;;10038715;29;20078;-56
2021/04/21 23:58:47;;;;;;;6.43;5.72;;;;;;;;;;10038644;29;20047;-56
